sensor_id;sensor_type;location;lat;lon;timestamp;temperature;humidity
25716;DHT22;13573;50.936;4.328;2023-06-24T00:01:13;20.10;99.90
25716;DHT22;13573;50.936;4.328;2023-06-24T00:03:40;20.10;99.90
25716;DHT22;13573;50.936;4.328;2023-06-24T00:06:08;19.40;99.90
25716;DHT22;13573;50.936;4.328;2023-06-24T00:08:36;19.50;99.90
25716;DHT22;13573;50.936;4.328;2023-06-24T00:11:03;19.50;99.90
25716;DHT22;13573;50.936;4.328;2023-06-24T00:13:31;19.40;99.90
25716;DHT22;13573;50.936;4.328;2023-06-24T00:15:58;19.60;99.90
25716;DHT22;13573;50.936;4.328;2023-06-24T00:18:25;19.70;99.90
25716;DHT22;13573;50.936;4.328;2023-06-24T00:20:55;19.80;99.90
25716;DHT22;13573;50.936;4.328;2023-06-24T00:23:23;19.50;99.90
25716;DHT22;13573;50.936;4.328;2023-06-24T00:25:52;19.20;99.90
25716;DHT22;13573;50.936;4.328;2023-06-24T00:28:19;19.00;99.90
25716;DHT22;13573;50.936;4.328;2023-06-24T00:30:48;18.80;99.90
25716;DHT22;13573;50.936;4.328;2023-06-24T00:33:15;19.10;99.90
25716;DHT22;13573;50.936;4.328;2023-06-24T00:35:45;19.80;99.90
25716;DHT22;13573;50.936;4.328;2023-06-24T00:38:12;19.30;99.90
25716;DHT22;13573;50.936;4.328;2023-06-24T00:40:39;19.50;99.90
25716;DHT22;13573;50.936;4.328;2023-06-24T00:43:06;19.40;99.90
25716;DHT22;13573;50.936;4.328;2023-06-24T00:45:33;19.60;99.90
25716;DHT22;13573;50.936;4.328;2023-06-24T00:48:00;19.80;99.90
25716;DHT22;13573;50.936;4.328;2023-06-24T00:50:29;19.50;99.90
25716;DHT22;13573;50.936;4.328;2023-06-24T00:52:55;19.60;99.90
25716;DHT22;13573;50.936;4.328;2023-06-24T00:55:22;19.10;99.90
25716;DHT22;13573;50.936;4.328;2023-06-24T00:57:51;19.30;99.90
25716;DHT22;13573;50.936;4.328;2023-06-24T01:00:20;18.90;99.90
25716;DHT22;13573;50.936;4.328;2023-06-24T01:02:49;19.00;99.90
25716;DHT22;13573;50.936;4.328;2023-06-24T01:05:18;18.90;99.90
25716;DHT22;13573;50.936;4.328;2023-06-24T01:07:47;18.80;99.90
25716;DHT22;13573;50.936;4.328;2023-06-24T01:10:16;18.80;99.90
25716;DHT22;13573;50.936;4.328;2023-06-24T01:12:43;18.60;99.90
25716;DHT22;13573;50.936;4.328;2023-06-24T01:15:10;18.40;99.90
25716;DHT22;13573;50.936;4.328;2023-06-24T01:17:44;18.80;99.90
25716;DHT22;13573;50.936;4.328;2023-06-24T01:23:12;18.60;99.90
25716;DHT22;13573;50.936;4.328;2023-06-24T01:27:07;18.50;99.90
25716;DHT22;13573;50.936;4.328;2023-06-24T01:28:55;18.20;99.90
25716;DHT22;13573;50.936;4.328;2023-06-24T01:34:15;18.30;99.90
25716;DHT22;13573;50.936;4.328;2023-06-24T01:36:39;18.20;99.90
25716;DHT22;13573;50.936;4.328;2023-06-24T01:39:08;18.10;99.90
25716;DHT22;13573;50.936;4.328;2023-06-24T01:41:40;18.00;99.90
25716;DHT22;13573;50.936;4.328;2023-06-24T01:44:09;18.10;99.90
25716;DHT22;13573;50.936;4.328;2023-06-24T01:46:37;18.20;99.90
25716;DHT22;13573;50.936;4.328;2023-06-24T01:49:07;18.00;99.90
25716;DHT22;13573;50.936;4.328;2023-06-24T01:51:35;17.80;99.90
25716;DHT22;13573;50.936;4.328;2023-06-24T01:54:06;17.50;99.90
25716;DHT22;13573;50.936;4.328;2023-06-24T01:56:34;17.70;99.90
25716;DHT22;13573;50.936;4.328;2023-06-24T01:59:03;17.70;99.90
25716;DHT22;13573;50.936;4.328;2023-06-24T02:01:33;17.60;99.90
25716;DHT22;13573;50.936;4.328;2023-06-24T02:04:04;17.50;99.90
25716;DHT22;13573;50.936;4.328;2023-06-24T02:06:32;17.50;99.90
25716;DHT22;13573;50.936;4.328;2023-06-24T02:09:00;17.40;99.90
25716;DHT22;13573;50.936;4.328;2023-06-24T02:11:31;17.40;99.90
25716;DHT22;13573;50.936;4.328;2023-06-24T02:13:59;17.50;99.90
25716;DHT22;13573;50.936;4.328;2023-06-24T02:16:27;17.40;99.90
25716;DHT22;13573;50.936;4.328;2023-06-24T02:18:56;17.30;99.90
25716;DHT22;13573;50.936;4.328;2023-06-24T02:21:24;17.30;99.90
25716;DHT22;13573;50.936;4.328;2023-06-24T02:23:53;17.50;99.90
25716;DHT22;13573;50.936;4.328;2023-06-24T02:26:20;17.60;99.90
25716;DHT22;13573;50.936;4.328;2023-06-24T02:28:50;17.60;99.90
25716;DHT22;13573;50.936;4.328;2023-06-24T02:31:18;17.70;99.90
25716;DHT22;13573;50.936;4.328;2023-06-24T02:33:44;17.60;99.90
25716;DHT22;13573;50.936;4.328;2023-06-24T02:36:12;17.00;99.90
25716;DHT22;13573;50.936;4.328;2023-06-24T02:38:39;17.30;99.90
25716;DHT22;13573;50.936;4.328;2023-06-24T02:41:09;17.40;99.90
25716;DHT22;13573;50.936;4.328;2023-06-24T02:43:37;17.40;99.90
25716;DHT22;13573;50.936;4.328;2023-06-24T02:46:05;17.30;99.90
25716;DHT22;13573;50.936;4.328;2023-06-24T02:48:34;17.30;99.90
25716;DHT22;13573;50.936;4.328;2023-06-24T02:51:03;17.20;99.90
25716;DHT22;13573;50.936;4.328;2023-06-24T02:53:31;17.00;99.90
25716;DHT22;13573;50.936;4.328;2023-06-24T02:55:58;16.70;99.90
25716;DHT22;13573;50.936;4.328;2023-06-24T02:58:26;16.80;99.90
25716;DHT22;13573;50.936;4.328;2023-06-24T03:00:55;16.70;99.90
25716;DHT22;13573;50.936;4.328;2023-06-24T03:03:23;16.70;99.90
25716;DHT22;13573;50.936;4.328;2023-06-24T03:05:51;16.80;99.90
25716;DHT22;13573;50.936;4.328;2023-06-24T03:08:20;17.00;99.90
25716;DHT22;13573;50.936;4.328;2023-06-24T03:10:47;16.90;99.90
25716;DHT22;13573;50.936;4.328;2023-06-24T03:13:13;17.20;99.90
25716;DHT22;13573;50.936;4.328;2023-06-24T03:15:40;17.10;99.90
25716;DHT22;13573;50.936;4.328;2023-06-24T03:18:07;17.00;99.90
25716;DHT22;13573;50.936;4.328;2023-06-24T03:20:34;17.10;99.90
25716;DHT22;13573;50.936;4.328;2023-06-24T03:23:02;16.90;99.90
25716;DHT22;13573;50.936;4.328;2023-06-24T03:25:29;17.30;99.90
25716;DHT22;13573;50.936;4.328;2023-06-24T03:27:56;17.30;99.90
25716;DHT22;13573;50.936;4.328;2023-06-24T03:30:24;17.20;99.90
25716;DHT22;13573;50.936;4.328;2023-06-24T03:32:51;17.10;99.90
25716;DHT22;13573;50.936;4.328;2023-06-24T03:35:18;17.20;99.90
25716;DHT22;13573;50.936;4.328;2023-06-24T03:37:45;17.20;99.90
25716;DHT22;13573;50.936;4.328;2023-06-24T03:40:12;17.00;99.90
25716;DHT22;13573;50.936;4.328;2023-06-24T03:42:39;17.10;99.90
25716;DHT22;13573;50.936;4.328;2023-06-24T03:47:34;17.20;99.90
25716;DHT22;13573;50.936;4.328;2023-06-24T03:50:01;17.00;99.90
25716;DHT22;13573;50.936;4.328;2023-06-24T03:52:27;17.00;99.90
25716;DHT22;13573;50.936;4.328;2023-06-24T03:54:54;17.10;99.90
25716;DHT22;13573;50.936;4.328;2023-06-24T03:57:21;17.00;99.90
25716;DHT22;13573;50.936;4.328;2023-06-24T03:59:49;17.00;99.90
25716;DHT22;13573;50.936;4.328;2023-06-24T04:02:16;16.80;99.90
25716;DHT22;13573;50.936;4.328;2023-06-24T04:04:44;17.10;99.90
25716;DHT22;13573;50.936;4.328;2023-06-24T04:07:11;16.70;99.90
25716;DHT22;13573;50.936;4.328;2023-06-24T04:09:38;17.00;99.90
25716;DHT22;13573;50.936;4.328;2023-06-24T04:12:06;17.00;99.90
25716;DHT22;13573;50.936;4.328;2023-06-24T04:14:33;16.90;99.90
25716;DHT22;13573;50.936;4.328;2023-06-24T04:16:59;17.00;99.90
25716;DHT22;13573;50.936;4.328;2023-06-24T04:19:28;16.90;99.90
25716;DHT22;13573;50.936;4.328;2023-06-24T04:24:21;17.30;99.90
25716;DHT22;13573;50.936;4.328;2023-06-24T04:26:49;17.30;99.90
25716;DHT22;13573;50.936;4.328;2023-06-24T04:29:15;17.30;99.90
25716;DHT22;13573;50.936;4.328;2023-06-24T04:31:42;17.20;99.90
25716;DHT22;13573;50.936;4.328;2023-06-24T04:34:09;17.40;99.90
25716;DHT22;13573;50.936;4.328;2023-06-24T04:36:36;17.10;99.90
25716;DHT22;13573;50.936;4.328;2023-06-24T04:39:03;17.20;99.90
25716;DHT22;13573;50.936;4.328;2023-06-24T04:41:29;17.40;99.90
25716;DHT22;13573;50.936;4.328;2023-06-24T04:43:59;17.30;99.90
25716;DHT22;13573;50.936;4.328;2023-06-24T04:46:27;17.30;99.90
25716;DHT22;13573;50.936;4.328;2023-06-24T04:48:53;17.30;99.90
25716;DHT22;13573;50.936;4.328;2023-06-24T04:51:20;17.70;99.90
25716;DHT22;13573;50.936;4.328;2023-06-24T04:53:47;18.10;99.90
25716;DHT22;13573;50.936;4.328;2023-06-24T04:56:16;18.30;99.90
25716;DHT22;13573;50.936;4.328;2023-06-24T04:58:42;18.70;99.90
25716;DHT22;13573;50.936;4.328;2023-06-24T05:01:10;18.70;99.90
25716;DHT22;13573;50.936;4.328;2023-06-24T05:03:36;18.80;99.90
25716;DHT22;13573;50.936;4.328;2023-06-24T05:06:04;19.00;99.90
25716;DHT22;13573;50.936;4.328;2023-06-24T05:08:30;19.10;99.90
25716;DHT22;13573;50.936;4.328;2023-06-24T05:10:57;19.40;99.90
25716;DHT22;13573;50.936;4.328;2023-06-24T05:13:27;19.50;99.90
25716;DHT22;13573;50.936;4.328;2023-06-24T05:15:56;19.80;99.90
25716;DHT22;13573;50.936;4.328;2023-06-24T05:18:24;19.80;99.90
25716;DHT22;13573;50.936;4.328;2023-06-24T05:20:50;20.00;99.90
25716;DHT22;13573;50.936;4.328;2023-06-24T05:23:17;19.90;99.90
25716;DHT22;13573;50.936;4.328;2023-06-24T05:25:44;20.30;99.90
25716;DHT22;13573;50.936;4.328;2023-06-24T05:28:14;20.00;99.90
25716;DHT22;13573;50.936;4.328;2023-06-24T05:30:41;20.20;99.90
25716;DHT22;13573;50.936;4.328;2023-06-24T05:33:08;20.30;99.90
25716;DHT22;13573;50.936;4.328;2023-06-24T05:35:35;20.50;99.90
25716;DHT22;13573;50.936;4.328;2023-06-24T05:40:31;21.10;99.90
25716;DHT22;13573;50.936;4.328;2023-06-24T05:42:57;21.10;99.90
25716;DHT22;13573;50.936;4.328;2023-06-24T05:45:24;21.50;99.90
25716;DHT22;13573;50.936;4.328;2023-06-24T05:47:53;21.50;99.90
25716;DHT22;13573;50.936;4.328;2023-06-24T05:50:20;21.90;99.90
25716;DHT22;13573;50.936;4.328;2023-06-24T05:52:46;21.90;99.90
25716;DHT22;13573;50.936;4.328;2023-06-24T05:55:13;22.20;99.90
25716;DHT22;13573;50.936;4.328;2023-06-24T05:57:40;22.40;99.90
25716;DHT22;13573;50.936;4.328;2023-06-24T06:00:08;22.50;99.90
25716;DHT22;13573;50.936;4.328;2023-06-24T06:02:35;22.70;99.90
25716;DHT22;13573;50.936;4.328;2023-06-24T06:05:03;22.10;99.90
25716;DHT22;13573;50.936;4.328;2023-06-24T06:07:31;22.40;99.90
25716;DHT22;13573;50.936;4.328;2023-06-24T06:09:57;22.90;99.90
25716;DHT22;13573;50.936;4.328;2023-06-24T06:12:24;23.00;99.90
25716;DHT22;13573;50.936;4.328;2023-06-24T06:14:51;22.40;99.90
25716;DHT22;13573;50.936;4.328;2023-06-24T06:17:17;22.40;99.90
25716;DHT22;13573;50.936;4.328;2023-06-24T06:19:44;22.40;99.90
25716;DHT22;13573;50.936;4.328;2023-06-24T06:22:12;22.20;99.90
25716;DHT22;13573;50.936;4.328;2023-06-24T06:24:41;22.30;99.90
25716;DHT22;13573;50.936;4.328;2023-06-24T06:27:10;22.90;99.90
25716;DHT22;13573;50.936;4.328;2023-06-24T06:29:37;23.00;99.90
25716;DHT22;13573;50.936;4.328;2023-06-24T06:32:04;23.20;99.90
25716;DHT22;13573;50.936;4.328;2023-06-24T06:34:31;23.70;99.90
25716;DHT22;13573;50.936;4.328;2023-06-24T06:36:57;23.70;99.90
25716;DHT22;13573;50.936;4.328;2023-06-24T06:39:25;23.60;99.90
25716;DHT22;13573;50.936;4.328;2023-06-24T06:41:52;23.90;99.90
25716;DHT22;13573;50.936;4.328;2023-06-24T06:44:19;23.80;99.90
25716;DHT22;13573;50.936;4.328;2023-06-24T06:46:47;23.90;99.90
25716;DHT22;13573;50.936;4.328;2023-06-24T06:49:15;24.10;99.90
25716;DHT22;13573;50.936;4.328;2023-06-24T06:51:41;24.70;99.90
25716;DHT22;13573;50.936;4.328;2023-06-24T06:54:08;24.60;99.90
25716;DHT22;13573;50.936;4.328;2023-06-24T06:56:34;24.50;99.90
25716;DHT22;13573;50.936;4.328;2023-06-24T06:59:02;24.60;99.90
25716;DHT22;13573;50.936;4.328;2023-06-24T07:01:29;24.80;99.90
25716;DHT22;13573;50.936;4.328;2023-06-24T07:03:56;24.80;99.90
25716;DHT22;13573;50.936;4.328;2023-06-24T07:06:22;25.70;99.90
25716;DHT22;13573;50.936;4.328;2023-06-24T07:08:49;25.70;99.90
25716;DHT22;13573;50.936;4.328;2023-06-24T07:11:16;25.30;99.90
25716;DHT22;13573;50.936;4.328;2023-06-24T07:13:43;25.40;99.90
25716;DHT22;13573;50.936;4.328;2023-06-24T07:16:11;25.70;99.90
25716;DHT22;13573;50.936;4.328;2023-06-24T07:18:40;25.90;99.90
25716;DHT22;13573;50.936;4.328;2023-06-24T07:21:06;26.30;99.90
25716;DHT22;13573;50.936;4.328;2023-06-24T07:23:33;26.40;99.90
25716;DHT22;13573;50.936;4.328;2023-06-24T07:25:59;26.10;99.90
25716;DHT22;13573;50.936;4.328;2023-06-24T07:28:26;26.10;99.90
25716;DHT22;13573;50.936;4.328;2023-06-24T07:30:53;26.50;99.90
25716;DHT22;13573;50.936;4.328;2023-06-24T07:33:21;27.10;99.90
25716;DHT22;13573;50.936;4.328;2023-06-24T07:35:48;27.50;99.90
25716;DHT22;13573;50.936;4.328;2023-06-24T07:38:16;27.80;99.90
25716;DHT22;13573;50.936;4.328;2023-06-24T07:40:43;27.70;99.90
25716;DHT22;13573;50.936;4.328;2023-06-24T07:43:11;27.60;99.90
25716;DHT22;13573;50.936;4.328;2023-06-24T07:45:37;27.60;99.90
25716;DHT22;13573;50.936;4.328;2023-06-24T07:48:04;27.10;99.90
25716;DHT22;13573;50.936;4.328;2023-06-24T07:50:31;27.40;99.90
25716;DHT22;13573;50.936;4.328;2023-06-24T07:52:58;27.40;99.90
25716;DHT22;13573;50.936;4.328;2023-06-24T07:55:24;28.50;99.90
25716;DHT22;13573;50.936;4.328;2023-06-24T07:57:53;29.00;99.90
25716;DHT22;13573;50.936;4.328;2023-06-24T08:00:20;29.30;99.90
25716;DHT22;13573;50.936;4.328;2023-06-24T08:02:47;29.50;99.90
25716;DHT22;13573;50.936;4.328;2023-06-24T08:05:14;29.60;99.90
25716;DHT22;13573;50.936;4.328;2023-06-24T08:07:41;29.20;99.90
25716;DHT22;13573;50.936;4.328;2023-06-24T08:10:07;29.60;99.90
25716;DHT22;13573;50.936;4.328;2023-06-24T08:12:34;30.20;99.90
25716;DHT22;13573;50.936;4.328;2023-06-24T08:15:03;30.40;99.90
25716;DHT22;13573;50.936;4.328;2023-06-24T08:17:30;31.00;99.90
25716;DHT22;13573;50.936;4.328;2023-06-24T08:19:57;31.50;99.90
25716;DHT22;13573;50.936;4.328;2023-06-24T08:22:25;30.60;99.90
25716;DHT22;13573;50.936;4.328;2023-06-24T08:24:52;30.50;99.90
25716;DHT22;13573;50.936;4.328;2023-06-24T08:27:18;30.60;99.90
25716;DHT22;13573;50.936;4.328;2023-06-24T08:29:46;30.20;99.90
25716;DHT22;13573;50.936;4.328;2023-06-24T08:32:13;30.60;99.90
25716;DHT22;13573;50.936;4.328;2023-06-24T08:34:40;30.70;99.90
25716;DHT22;13573;50.936;4.328;2023-06-24T08:37:08;30.80;99.90
25716;DHT22;13573;50.936;4.328;2023-06-24T08:39:34;31.10;99.90
25716;DHT22;13573;50.936;4.328;2023-06-24T08:42:03;31.70;99.90
25716;DHT22;13573;50.936;4.328;2023-06-24T08:44:30;31.40;99.90
25716;DHT22;13573;50.936;4.328;2023-06-24T08:46:57;31.70;99.90
25716;DHT22;13573;50.936;4.328;2023-06-24T08:49:29;32.00;99.10
25716;DHT22;13573;50.936;4.328;2023-06-24T08:52:03;32.30;98.70
25716;DHT22;13573;50.936;4.328;2023-06-24T08:54:34;32.50;98.40
25716;DHT22;13573;50.936;4.328;2023-06-24T08:57:03;31.90;98.00
25716;DHT22;13573;50.936;4.328;2023-06-24T08:59:33;31.50;99.20
25716;DHT22;13573;50.936;4.328;2023-06-24T09:02:01;32.10;99.20
25716;DHT22;13573;50.936;4.328;2023-06-24T09:04:30;31.70;98.20
25716;DHT22;13573;50.936;4.328;2023-06-24T09:06:57;31.80;98.40
25716;DHT22;13573;50.936;4.328;2023-06-24T09:09:25;32.40;97.60
25716;DHT22;13573;50.936;4.328;2023-06-24T09:11:55;31.90;96.20
25716;DHT22;13573;50.936;4.328;2023-06-24T09:14:24;32.10;95.90
25716;DHT22;13573;50.936;4.328;2023-06-24T09:16:54;31.60;96.70
25716;DHT22;13573;50.936;4.328;2023-06-24T09:19:24;32.30;97.10
25716;DHT22;13573;50.936;4.328;2023-06-24T09:21:51;32.40;96.60
25716;DHT22;13573;50.936;4.328;2023-06-24T09:24:20;32.40;96.20
25716;DHT22;13573;50.936;4.328;2023-06-24T09:26:47;32.90;95.10
25716;DHT22;13573;50.936;4.328;2023-06-24T09:29:15;33.10;95.10
25716;DHT22;13573;50.936;4.328;2023-06-24T09:31:48;34.10;94.60
25716;DHT22;13573;50.936;4.328;2023-06-24T09:34:19;33.90;94.30
25716;DHT22;13573;50.936;4.328;2023-06-24T09:36:55;34.10;94.20
25716;DHT22;13573;50.936;4.328;2023-06-24T09:39:24;34.10;93.50
25716;DHT22;13573;50.936;4.328;2023-06-24T09:41:57;33.00;93.50
25716;DHT22;13573;50.936;4.328;2023-06-24T09:44:25;32.70;92.40
25716;DHT22;13573;50.936;4.328;2023-06-24T09:46:52;31.80;93.60
25716;DHT22;13573;50.936;4.328;2023-06-24T09:49:19;31.80;93.00
25716;DHT22;13573;50.936;4.328;2023-06-24T09:51:48;32.20;93.70
25716;DHT22;13573;50.936;4.328;2023-06-24T09:54:16;32.70;92.50
25716;DHT22;13573;50.936;4.328;2023-06-24T09:56:48;32.80;91.30
25716;DHT22;13573;50.936;4.328;2023-06-24T09:59:15;32.90;92.10
25716;DHT22;13573;50.936;4.328;2023-06-24T10:01:47;32.60;91.80
25716;DHT22;13573;50.936;4.328;2023-06-24T10:04:18;32.80;92.40
25716;DHT22;13573;50.936;4.328;2023-06-24T10:06:45;34.10;92.00
25716;DHT22;13573;50.936;4.328;2023-06-24T10:09:12;34.90;91.40
25716;DHT22;13573;50.936;4.328;2023-06-24T10:11:40;34.50;88.50
25716;DHT22;13573;50.936;4.328;2023-06-24T10:14:07;35.00;90.00
25716;DHT22;13573;50.936;4.328;2023-06-24T10:16:34;35.10;89.70
25716;DHT22;13573;50.936;4.328;2023-06-24T10:19:02;34.70;90.40
25716;DHT22;13573;50.936;4.328;2023-06-24T10:24:10;33.80;88.40
25716;DHT22;13573;50.936;4.328;2023-06-24T10:26:37;33.70;87.30
25716;DHT22;13573;50.936;4.328;2023-06-24T10:29:09;32.60;88.10
25716;DHT22;13573;50.936;4.328;2023-06-24T10:31:54;31.90;89.60
25716;DHT22;13573;50.936;4.328;2023-06-24T10:34:32;32.30;90.80
25716;DHT22;13573;50.936;4.328;2023-06-24T10:37:04;32.80;90.00
25716;DHT22;13573;50.936;4.328;2023-06-24T10:39:39;34.70;88.60
25716;DHT22;13573;50.936;4.328;2023-06-24T10:44:47;35.50;86.40
25716;DHT22;13573;50.936;4.328;2023-06-24T10:47:14;36.40;85.30
25716;DHT22;13573;50.936;4.328;2023-06-24T10:49:41;36.40;85.50
25716;DHT22;13573;50.936;4.328;2023-06-24T10:52:09;34.80;86.60
25716;DHT22;13573;50.936;4.328;2023-06-24T10:54:37;34.90;86.80
25716;DHT22;13573;50.936;4.328;2023-06-24T10:57:06;35.20;86.30
25716;DHT22;13573;50.936;4.328;2023-06-24T10:59:34;33.60;85.90
25716;DHT22;13573;50.936;4.328;2023-06-24T11:02:02;33.90;85.50
25716;DHT22;13573;50.936;4.328;2023-06-24T11:04:29;34.50;84.70
25716;DHT22;13573;50.936;4.328;2023-06-24T11:06:59;34.60;86.10
25716;DHT22;13573;50.936;4.328;2023-06-24T11:09:26;34.50;86.80
25716;DHT22;13573;50.936;4.328;2023-06-24T11:11:55;35.00;87.20
25716;DHT22;13573;50.936;4.328;2023-06-24T11:14:21;35.10;86.30
25716;DHT22;13573;50.936;4.328;2023-06-24T11:16:48;35.90;85.00
25716;DHT22;13573;50.936;4.328;2023-06-24T11:19:16;36.10;85.50
25716;DHT22;13573;50.936;4.328;2023-06-24T11:21:42;35.00;84.20
25716;DHT22;13573;50.936;4.328;2023-06-24T11:24:11;35.10;83.80
25716;DHT22;13573;50.936;4.328;2023-06-24T11:26:38;34.80;84.60
25716;DHT22;13573;50.936;4.328;2023-06-24T11:29:11;34.40;85.10
25716;DHT22;13573;50.936;4.328;2023-06-24T11:31:37;35.30;85.20
25716;DHT22;13573;50.936;4.328;2023-06-24T11:34:04;36.30;83.10
25716;DHT22;13573;50.936;4.328;2023-06-24T11:36:31;36.00;82.50
25716;DHT22;13573;50.936;4.328;2023-06-24T11:38:58;35.40;84.30
25716;DHT22;13573;50.936;4.328;2023-06-24T11:41:25;34.90;83.70
25716;DHT22;13573;50.936;4.328;2023-06-24T11:43:53;34.20;86.10
25716;DHT22;13573;50.936;4.328;2023-06-24T11:46:26;34.30;85.80
25716;DHT22;13573;50.936;4.328;2023-06-24T11:51:27;34.00;85.00
25716;DHT22;13573;50.936;4.328;2023-06-24T11:53:59;33.80;84.20
25716;DHT22;13573;50.936;4.328;2023-06-24T11:56:34;34.20;85.90
25716;DHT22;13573;50.936;4.328;2023-06-24T11:59:05;34.70;85.90
25716;DHT22;13573;50.936;4.328;2023-06-24T12:01:33;35.00;84.20
25716;DHT22;13573;50.936;4.328;2023-06-24T12:04:00;35.10;84.00
25716;DHT22;13573;50.936;4.328;2023-06-24T12:06:27;35.20;84.20
25716;DHT22;13573;50.936;4.328;2023-06-24T12:08:54;35.30;85.00
25716;DHT22;13573;50.936;4.328;2023-06-24T12:11:21;36.30;81.50
25716;DHT22;13573;50.936;4.328;2023-06-24T12:13:47;37.20;81.10
25716;DHT22;13573;50.936;4.328;2023-06-24T12:16:14;37.30;78.00
25716;DHT22;13573;50.936;4.328;2023-06-24T12:18:42;38.40;77.30
25716;DHT22;13573;50.936;4.328;2023-06-24T12:21:08;39.50;76.70
25716;DHT22;13573;50.936;4.328;2023-06-24T12:23:37;39.80;75.40
25716;DHT22;13573;50.936;4.328;2023-06-24T12:26:04;39.90;74.30
25716;DHT22;13573;50.936;4.328;2023-06-24T12:28:30;39.60;75.50
25716;DHT22;13573;50.936;4.328;2023-06-24T12:30:58;40.00;76.60
25716;DHT22;13573;50.936;4.328;2023-06-24T12:33:24;38.70;75.40
25716;DHT22;13573;50.936;4.328;2023-06-24T12:35:51;37.70;76.90
25716;DHT22;13573;50.936;4.328;2023-06-24T12:38:17;36.10;77.80
25716;DHT22;13573;50.936;4.328;2023-06-24T12:40:44;35.40;79.80
25716;DHT22;13573;50.936;4.328;2023-06-24T12:43:11;37.10;78.70
25716;DHT22;13573;50.936;4.328;2023-06-24T12:45:38;37.60;78.00
25716;DHT22;13573;50.936;4.328;2023-06-24T12:48:07;39.10;76.00
25716;DHT22;13573;50.936;4.328;2023-06-24T12:50:33;40.30;75.00
25716;DHT22;13573;50.936;4.328;2023-06-24T12:53:00;40.50;74.00
25716;DHT22;13573;50.936;4.328;2023-06-24T12:55:27;40.40;74.00
25716;DHT22;13573;50.936;4.328;2023-06-24T12:57:54;40.80;71.00
25716;DHT22;13573;50.936;4.328;2023-06-24T13:00:22;41.40;72.90
25716;DHT22;13573;50.936;4.328;2023-06-24T13:02:50;42.00;72.00
25716;DHT22;13573;50.936;4.328;2023-06-24T13:05:17;42.20;70.30
25716;DHT22;13573;50.936;4.328;2023-06-24T13:10:11;40.20;70.00
25716;DHT22;13573;50.936;4.328;2023-06-24T13:12:39;38.20;72.20
25716;DHT22;13573;50.936;4.328;2023-06-24T13:15:06;36.70;73.80
25716;DHT22;13573;50.936;4.328;2023-06-24T13:17:35;35.80;75.00
25716;DHT22;13573;50.936;4.328;2023-06-24T13:20:02;36.20;75.20
25716;DHT22;13573;50.936;4.328;2023-06-24T13:22:34;37.20;75.80
25716;DHT22;13573;50.936;4.328;2023-06-24T13:25:02;37.20;75.80
25716;DHT22;13573;50.936;4.328;2023-06-24T13:27:28;38.00;75.00
25716;DHT22;13573;50.936;4.328;2023-06-24T13:29:55;37.80;72.20
25716;DHT22;13573;50.936;4.328;2023-06-24T13:32:22;37.60;72.50
25716;DHT22;13573;50.936;4.328;2023-06-24T13:34:49;37.50;74.20
25716;DHT22;13573;50.936;4.328;2023-06-24T13:37:16;38.20;72.40
25716;DHT22;13573;50.936;4.328;2023-06-24T13:39:43;39.20;73.40
25716;DHT22;13573;50.936;4.328;2023-06-24T13:42:10;39.70;71.40
25716;DHT22;13573;50.936;4.328;2023-06-24T13:44:36;39.30;73.40
25716;DHT22;13573;50.936;4.328;2023-06-24T13:47:03;39.30;73.80
25716;DHT22;13573;50.936;4.328;2023-06-24T13:49:30;38.20;73.30
25716;DHT22;13573;50.936;4.328;2023-06-24T13:51:59;37.50;73.70
25716;DHT22;13573;50.936;4.328;2023-06-24T13:54:26;39.20;74.00
25716;DHT22;13573;50.936;4.328;2023-06-24T13:56:55;38.30;73.70
25716;DHT22;13573;50.936;4.328;2023-06-24T13:59:23;38.90;73.50
25716;DHT22;13573;50.936;4.328;2023-06-24T14:01:50;39.20;72.20
25716;DHT22;13573;50.936;4.328;2023-06-24T14:04:17;39.70;72.20
25716;DHT22;13573;50.936;4.328;2023-06-24T14:06:43;39.80;70.70
25716;DHT22;13573;50.936;4.328;2023-06-24T14:09:12;38.50;71.20
25716;DHT22;13573;50.936;4.328;2023-06-24T14:11:41;37.50;72.40
25716;DHT22;13573;50.936;4.328;2023-06-24T14:14:08;37.10;72.50
25716;DHT22;13573;50.936;4.328;2023-06-24T14:16:35;35.50;73.50
25716;DHT22;13573;50.936;4.328;2023-06-24T14:19:02;35.50;73.50
25716;DHT22;13573;50.936;4.328;2023-06-24T14:21:28;34.90;75.50
25716;DHT22;13573;50.936;4.328;2023-06-24T14:23:57;34.40;74.60
25716;DHT22;13573;50.936;4.328;2023-06-24T14:26:24;34.60;74.30
25716;DHT22;13573;50.936;4.328;2023-06-24T14:28:51;33.30;77.20
25716;DHT22;13573;50.936;4.328;2023-06-24T14:31:17;33.60;76.40
25716;DHT22;13573;50.936;4.328;2023-06-24T14:33:45;33.20;78.60
25716;DHT22;13573;50.936;4.328;2023-06-24T14:36:12;32.80;76.30
25716;DHT22;13573;50.936;4.328;2023-06-24T14:38:39;32.50;77.90
25716;DHT22;13573;50.936;4.328;2023-06-24T14:41:07;32.50;78.20
25716;DHT22;13573;50.936;4.328;2023-06-24T14:43:34;32.70;79.40
25716;DHT22;13573;50.936;4.328;2023-06-24T14:46:03;32.80;79.70
25716;DHT22;13573;50.936;4.328;2023-06-24T14:48:30;32.90;80.60
25716;DHT22;13573;50.936;4.328;2023-06-24T14:50:56;33.00;81.10
25716;DHT22;13573;50.936;4.328;2023-06-24T14:53:23;33.20;82.10
25716;DHT22;13573;50.936;4.328;2023-06-24T14:55:50;33.30;81.10
25716;DHT22;13573;50.936;4.328;2023-06-24T14:58:16;33.30;81.40
25716;DHT22;13573;50.936;4.328;2023-06-24T15:00:43;33.00;77.90
25716;DHT22;13573;50.936;4.328;2023-06-24T15:03:10;32.80;78.90
25716;DHT22;13573;50.936;4.328;2023-06-24T15:05:39;32.10;81.20
25716;DHT22;13573;50.936;4.328;2023-06-24T15:08:05;32.40;82.00
25716;DHT22;13573;50.936;4.328;2023-06-24T15:10:32;32.60;81.50
25716;DHT22;13573;50.936;4.328;2023-06-24T15:12:59;32.60;79.70
25716;DHT22;13573;50.936;4.328;2023-06-24T15:15:25;31.50;84.10
25716;DHT22;13573;50.936;4.328;2023-06-24T15:17:53;31.30;81.90
25716;DHT22;13573;50.936;4.328;2023-06-24T15:20:20;31.30;80.90
25716;DHT22;13573;50.936;4.328;2023-06-24T15:22:47;31.40;79.20
25716;DHT22;13573;50.936;4.328;2023-06-24T15:25:16;31.40;81.60
25716;DHT22;13573;50.936;4.328;2023-06-24T15:27:44;31.70;80.60
25716;DHT22;13573;50.936;4.328;2023-06-24T15:30:11;31.80;77.70
25716;DHT22;13573;50.936;4.328;2023-06-24T15:32:38;31.80;80.90
25716;DHT22;13573;50.936;4.328;2023-06-24T15:35:06;30.50;81.80
25716;DHT22;13573;50.936;4.328;2023-06-24T15:37:33;31.70;81.80
25716;DHT22;13573;50.936;4.328;2023-06-24T15:40:05;31.80;82.50
25716;DHT22;13573;50.936;4.328;2023-06-24T15:42:32;32.00;81.30
25716;DHT22;13573;50.936;4.328;2023-06-24T15:45:00;31.90;80.10
25716;DHT22;13573;50.936;4.328;2023-06-24T15:47:27;32.20;78.10
25716;DHT22;13573;50.936;4.328;2023-06-24T15:49:53;32.00;76.30
25716;DHT22;13573;50.936;4.328;2023-06-24T15:52:20;31.70;81.00
25716;DHT22;13573;50.936;4.328;2023-06-24T15:54:47;31.80;81.90
25716;DHT22;13573;50.936;4.328;2023-06-24T15:57:15;31.90;81.40